DLH1XY EDDW-EDDF
Flight info
| Callsign | DLH1XY |
|---|---|
| Flight time | 0h 37m |
| Altitude | 29000 |
| Route | WIMCI1L WIMCI Y804 PIROT T152 KERAX KERAX5A |
| Aircraft | A319/M-SDE3FGHIRWY/LB1 |
Departure
| Time | 2026-05-04 11:56 |
|---|---|
| Airport | Bremen Airport (EDDW) |
Arrival
| Time | 2026-05-04 12:33 |
|---|---|
| Airport | Frankfurt Main Airport (EDDF) |
| Time | Latitude | Longitude | Altitude | Speed | Heading |
|---|---|---|---|---|---|
| 2026-05-04 11:31 | 53.05109 | 8.78654 | 25 ft | 0 kts | 49° |
| 2026-05-04 11:34 | 53.05109 | 8.78653 | 25 ft | 0 kts | 49° |
| 2026-05-04 11:47 | 53.05109 | 8.78652 | 22 ft | 2 kts | 49° |
| 2026-05-04 11:47 | 53.05093 | 8.78621 | 22 ft | 4 kts | 52° |
| 2026-05-04 11:47 | 53.05077 | 8.78584 | 23 ft | 4 kts | 61° |
| 2026-05-04 11:47 | 53.05067 | 8.78544 | 24 ft | 4 kts | 89° |
| 2026-05-04 11:48 | 53.05072 | 8.78515 | 24 ft | 1 kts | 139° |
| 2026-05-04 11:48 | 53.05075 | 8.78511 | 24 ft | 1 kts | 139° |
| 2026-05-04 11:51 | 53.05066 | 8.78524 | 23 ft | 4 kts | 139° |
| 2026-05-04 11:51 | 53.05035 | 8.78570 | 22 ft | 8 kts | 139° |
| 2026-05-04 11:51 | 53.04992 | 8.78629 | 22 ft | 8 kts | 144° |
| 2026-05-04 11:51 | 53.04930 | 8.78653 | 22 ft | 11 kts | 177° |
| 2026-05-04 11:52 | 53.04864 | 8.78693 | 22 ft | 10 kts | 128° |
| 2026-05-04 11:52 | 53.04854 | 8.78810 | 22 ft | 11 kts | 92° |
| 2026-05-04 11:52 | 53.04855 | 8.78952 | 22 ft | 14 kts | 88° |
| 2026-05-04 11:52 | 53.04859 | 8.79124 | 22 ft | 16 kts | 88° |
| 2026-05-04 11:53 | 53.04864 | 8.79327 | 22 ft | 19 kts | 87° |
| 2026-05-04 11:53 | 53.04870 | 8.79556 | 22 ft | 21 kts | 88° |
| 2026-05-04 11:53 | 53.04876 | 8.79812 | 22 ft | 23 kts | 88° |
| 2026-05-04 11:53 | 53.04882 | 8.80087 | 22 ft | 24 kts | 88° |
| 2026-05-04 11:55 | 53.04713 | 8.79861 | 22 ft | 86 kts | 268° |
| 2026-05-04 11:55 | 53.04684 | 8.78486 | 36 ft | 147 kts | 271° |
| 2026-05-04 11:56 | 53.04612 | 8.76824 | 743 ft | 144 kts | 256° |
| 2026-05-04 11:56 | 53.04113 | 8.75369 | 1344 ft | 157 kts | 227° |
| 2026-05-04 11:56 | 53.03073 | 8.74441 | 1675 ft | 185 kts | 201° |
| 2026-05-04 11:56 | 53.01789 | 8.73710 | 2096 ft | 206 kts | 201° |
| 2026-05-04 11:57 | 53.00337 | 8.72860 | 2445 ft | 236 kts | 201° |
| 2026-05-04 11:57 | 52.98611 | 8.72591 | 3020 ft | 262 kts | 170° |
| 2026-05-04 11:57 | 52.96971 | 8.73974 | 3910 ft | 272 kts | 143° |
| 2026-05-04 11:57 | 52.95621 | 8.76231 | 4941 ft | 277 kts | 132° |
| 2026-05-04 11:58 | 52.94416 | 8.78746 | 5919 ft | 280 kts | 129° |
| 2026-05-04 11:58 | 52.93097 | 8.81149 | 6843 ft | 282 kts | 142° |
| 2026-05-04 11:58 | 52.91449 | 8.82817 | 7707 ft | 281 kts | 161° |
| 2026-05-04 11:58 | 52.89597 | 8.83865 | 8690 ft | 282 kts | 165° |
| 2026-05-04 11:59 | 52.87702 | 8.84831 | 9632 ft | 285 kts | 167° |
| 2026-05-04 11:59 | 52.85768 | 8.85780 | 10315 ft | 297 kts | 167° |
| 2026-05-04 11:59 | 52.83700 | 8.86778 | 10627 ft | 321 kts | 167° |
| 2026-05-04 11:59 | 52.81537 | 8.87833 | 11181 ft | 332 kts | 167° |
| 2026-05-04 12:00 | 52.79301 | 8.88946 | 11917 ft | 338 kts | 166° |
| 2026-05-04 12:00 | 52.77031 | 8.90091 | 12691 ft | 342 kts | 166° |
| 2026-05-04 12:00 | 52.74763 | 8.91238 | 13442 ft | 347 kts | 167° |
| 2026-05-04 12:00 | 52.72438 | 8.92416 | 14145 ft | 351 kts | 167° |
| 2026-05-04 12:01 | 52.70083 | 8.93616 | 14839 ft | 354 kts | 167° |
| 2026-05-04 12:01 | 52.67723 | 8.94821 | 15546 ft | 356 kts | 167° |
| 2026-05-04 12:02 | 52.53234 | 9.02035 | 19585 ft | 371 kts | 168° |
| 2026-05-04 12:03 | 52.50736 | 9.03274 | 20243 ft | 374 kts | 168° |
| 2026-05-04 12:03 | 52.48230 | 9.04517 | 20899 ft | 378 kts | 168° |
| 2026-05-04 12:03 | 52.45723 | 9.05757 | 21483 ft | 383 kts | 168° |
| 2026-05-04 12:03 | 52.43163 | 9.07020 | 22161 ft | 385 kts | 169° |
| 2026-05-04 12:04 | 52.40587 | 9.08285 | 22725 ft | 388 kts | 168° |
| 2026-05-04 12:04 | 52.37988 | 9.09541 | 23271 ft | 390 kts | 169° |
| 2026-05-04 12:04 | 52.35360 | 9.10738 | 23750 ft | 393 kts | 170° |
| 2026-05-04 12:04 | 52.32709 | 9.11892 | 24201 ft | 395 kts | 171° |
| 2026-05-04 12:05 | 52.30037 | 9.13026 | 24649 ft | 397 kts | 171° |
| 2026-05-04 12:05 | 52.27355 | 9.14160 | 25087 ft | 399 kts | 171° |
| 2026-05-04 12:05 | 52.24657 | 9.15311 | 25511 ft | 402 kts | 171° |
| 2026-05-04 12:05 | 52.21945 | 9.16479 | 25957 ft | 404 kts | 171° |
| 2026-05-04 12:06 | 52.19246 | 9.17647 | 26360 ft | 407 kts | 171° |
| 2026-05-04 12:06 | 52.16496 | 9.18844 | 26760 ft | 409 kts | 171° |
| 2026-05-04 12:06 | 52.13727 | 9.20048 | 27210 ft | 411 kts | 171° |
| 2026-05-04 12:06 | 52.10984 | 9.21240 | 27635 ft | 413 kts | 171° |
| 2026-05-04 12:07 | 52.08194 | 9.22451 | 28070 ft | 415 kts | 171° |
| 2026-05-04 12:07 | 52.05381 | 9.23490 | 28476 ft | 412 kts | 178° |
| 2026-05-04 12:07 | 52.02565 | 9.23834 | 28864 ft | 409 kts | 184° |
| 2026-05-04 12:07 | 51.99719 | 9.23961 | 28968 ft | 404 kts | 184° |
| 2026-05-04 12:08 | 51.96955 | 9.24100 | 28979 ft | 392 kts | 184° |
| 2026-05-04 12:08 | 51.94232 | 9.24242 | 28981 ft | 388 kts | 184° |
| 2026-05-04 12:08 | 51.88882 | 9.24495 | 28978 ft | 385 kts | 184° |
| 2026-05-04 12:09 | 51.83528 | 9.24749 | 28983 ft | 385 kts | 184° |
| 2026-05-04 12:09 | 51.78190 | 9.24999 | 28982 ft | 385 kts | 184° |
| 2026-05-04 12:10 | 51.72818 | 9.25259 | 28973 ft | 385 kts | 184° |
| 2026-05-04 12:10 | 51.67451 | 9.25523 | 28947 ft | 384 kts | 184° |
| 2026-05-04 12:11 | 51.62123 | 9.25771 | 28954 ft | 385 kts | 184° |
| 2026-05-04 12:11 | 51.56752 | 9.26036 | 28951 ft | 385 kts | 183° |
| 2026-05-04 12:12 | 51.51423 | 9.26295 | 28961 ft | 385 kts | 184° |
| 2026-05-04 12:12 | 51.46046 | 9.26539 | 28886 ft | 386 kts | 184° |
| 2026-05-04 12:13 | 51.43358 | 9.26663 | 28584 ft | 385 kts | 183° |
| 2026-05-04 12:14 | 51.24890 | 9.27539 | 26217 ft | 371 kts | 183° |
| 2026-05-04 12:15 | 51.22312 | 9.27653 | 25746 ft | 368 kts | 183° |
| 2026-05-04 12:15 | 51.19755 | 9.27766 | 25305 ft | 366 kts | 182° |
| 2026-05-04 12:15 | 51.17209 | 9.27883 | 24874 ft | 363 kts | 182° |
| 2026-05-04 12:15 | 51.14718 | 9.28001 | 24441 ft | 361 kts | 182° |
| 2026-05-04 12:16 | 51.12219 | 9.27907 | 23960 ft | 356 kts | 191° |
| 2026-05-04 12:16 | 51.09781 | 9.27272 | 23522 ft | 353 kts | 192° |
| 2026-05-04 12:16 | 51.07358 | 9.26641 | 23060 ft | 350 kts | 192° |
| 2026-05-04 12:16 | 51.04970 | 9.26021 | 22645 ft | 345 kts | 192° |
| 2026-05-04 12:17 | 51.02612 | 9.25408 | 22235 ft | 341 kts | 192° |
| 2026-05-04 12:17 | 51.00305 | 9.24807 | 21820 ft | 338 kts | 192° |
| 2026-05-04 12:17 | 50.97997 | 9.24204 | 21408 ft | 334 kts | 192° |
| 2026-05-04 12:17 | 50.95713 | 9.23608 | 20988 ft | 331 kts | 192° |
| 2026-05-04 12:18 | 50.93436 | 9.23011 | 20576 ft | 329 kts | 192° |
| 2026-05-04 12:18 | 50.91182 | 9.22419 | 20165 ft | 327 kts | 192° |
| 2026-05-04 12:18 | 50.88946 | 9.21832 | 19753 ft | 325 kts | 192° |
| 2026-05-04 12:18 | 50.86714 | 9.21245 | 19344 ft | 323 kts | 192° |
| 2026-05-04 12:19 | 50.84525 | 9.20669 | 18940 ft | 322 kts | 192° |
| 2026-05-04 12:19 | 50.82306 | 9.20088 | 18530 ft | 321 kts | 192° |
| 2026-05-04 12:19 | 50.80093 | 9.19513 | 18102 ft | 321 kts | 192° |
| 2026-05-04 12:19 | 50.77922 | 9.18948 | 17689 ft | 319 kts | 191° |
| 2026-05-04 12:20 | 50.75722 | 9.18376 | 17290 ft | 317 kts | 191° |
| 2026-05-04 12:20 | 50.73576 | 9.17819 | 16904 ft | 315 kts | 191° |
| 2026-05-04 12:20 | 50.71421 | 9.17261 | 16518 ft | 313 kts | 191° |
| 2026-05-04 12:20 | 50.69275 | 9.16703 | 16135 ft | 311 kts | 191° |
| 2026-05-04 12:21 | 50.67142 | 9.16152 | 15757 ft | 310 kts | 191° |
| 2026-05-04 12:21 | 50.64950 | 9.15587 | 15369 ft | 328 kts | 191° |
| 2026-05-04 12:21 | 50.62670 | 9.14998 | 14958 ft | 332 kts | 191° |
| 2026-05-04 12:21 | 50.60422 | 9.14418 | 14553 ft | 332 kts | 191° |
| 2026-05-04 12:22 | 50.58139 | 9.13830 | 14142 ft | 330 kts | 191° |
| 2026-05-04 12:22 | 50.55865 | 9.13246 | 13722 ft | 329 kts | 191° |
| 2026-05-04 12:22 | 50.53609 | 9.12665 | 13282 ft | 327 kts | 191° |
| 2026-05-04 12:22 | 50.51364 | 9.12087 | 12856 ft | 325 kts | 191° |
| 2026-05-04 12:23 | 50.49161 | 9.11518 | 12443 ft | 324 kts | 191° |
| 2026-05-04 12:23 | 50.46939 | 9.10946 | 12033 ft | 322 kts | 191° |
| 2026-05-04 12:23 | 50.44718 | 9.10376 | 11626 ft | 320 kts | 191° |
| 2026-05-04 12:23 | 50.42592 | 9.09835 | 11488 ft | 304 kts | 191° |
| 2026-05-04 12:24 | 50.40567 | 9.09322 | 11254 ft | 288 kts | 191° |
| 2026-05-04 12:24 | 50.38612 | 9.08823 | 10784 ft | 282 kts | 191° |
| 2026-05-04 12:24 | 50.36674 | 9.08327 | 10274 ft | 280 kts | 191° |
| 2026-05-04 12:24 | 50.34750 | 9.07835 | 9947 ft | 279 kts | 191° |
| 2026-05-04 12:25 | 50.32864 | 9.07354 | 9589 ft | 277 kts | 191° |
| 2026-05-04 12:25 | 50.30957 | 9.06832 | 9210 ft | 274 kts | 195° |
| 2026-05-04 12:25 | 50.29188 | 9.05840 | 8834 ft | 272 kts | 203° |
| 2026-05-04 12:25 | 50.27446 | 9.04697 | 8482 ft | 269 kts | 204° |
| 2026-05-04 12:26 | 50.25723 | 9.03555 | 8073 ft | 267 kts | 204° |
| 2026-05-04 12:26 | 50.24011 | 9.02425 | 7476 ft | 266 kts | 204° |
| 2026-05-04 12:26 | 50.22302 | 9.01313 | 6891 ft | 264 kts | 204° |
| 2026-05-04 12:26 | 50.20603 | 9.00213 | 6291 ft | 263 kts | 204° |
| 2026-05-04 12:27 | 50.18918 | 8.99129 | 5895 ft | 263 kts | 204° |
| 2026-05-04 12:27 | 50.17229 | 8.98051 | 5538 ft | 261 kts | 204° |
| 2026-05-04 12:27 | 50.15657 | 8.96700 | 5161 ft | 255 kts | 221° |
| 2026-05-04 12:27 | 50.14363 | 8.94897 | 5034 ft | 242 kts | 224° |
| 2026-05-04 12:28 | 50.13165 | 8.93179 | 4847 ft | 233 kts | 224° |
| 2026-05-04 12:28 | 50.11997 | 8.91464 | 4637 ft | 225 kts | 229° |
| 2026-05-04 12:28 | 50.11253 | 8.89379 | 4431 ft | 218 kts | 250° |
| 2026-05-04 12:28 | 50.10740 | 8.87164 | 4153 ft | 216 kts | 250° |
| 2026-05-04 12:29 | 50.10404 | 8.85711 | 3965 ft | 214 kts | 250° |
| 2026-05-04 12:29 | 50.09732 | 8.82838 | 3578 ft | 211 kts | 249° |
| 2026-05-04 12:29 | 50.09228 | 8.80684 | 3276 ft | 212 kts | 249° |
| 2026-05-04 12:29 | 50.08718 | 8.78539 | 2892 ft | 209 kts | 249° |
| 2026-05-04 12:30 | 50.08384 | 8.77135 | 2724 ft | 205 kts | 248° |
| 2026-05-04 12:30 | 50.07825 | 8.74345 | 2156 ft | 204 kts | 261° |
| 2026-05-04 12:30 | 50.07727 | 8.72880 | 1968 ft | 199 kts | 263° |
| 2026-05-04 12:30 | 50.07468 | 8.70867 | 1892 ft | 183 kts | 248° |
| 2026-05-04 12:31 | 50.06990 | 8.69093 | 1776 ft | 174 kts | 247° |
| 2026-05-04 12:31 | 50.06575 | 8.67340 | 1565 ft | 170 kts | 250° |
| 2026-05-04 12:31 | 50.06168 | 8.65684 | 1377 ft | 153 kts | 247° |
| 2026-05-04 12:31 | 50.05805 | 8.64220 | 1152 ft | 140 kts | 250° |
| 2026-05-04 12:32 | 50.05489 | 8.62854 | 946 ft | 129 kts | 252° |
| 2026-05-04 12:32 | 50.04880 | 8.60252 | 624 ft | 125 kts | 251° |
| 2026-05-04 12:32 | 50.04587 | 8.59010 | 454 ft | 121 kts | 249° |
| 2026-05-04 12:33 | 50.04312 | 8.57840 | 371 ft | 103 kts | 250° |
| 2026-05-04 12:33 | 50.04125 | 8.57054 | 363 ft | 58 kts | 249° |
| 2026-05-04 12:33 | 50.04000 | 8.56541 | 356 ft | 38 kts | 250° |
| 2026-05-04 12:33 | 50.04001 | 8.56292 | 351 ft | 18 kts | 279° |
| 2026-05-04 12:34 | 50.04047 | 8.56132 | 354 ft | 15 kts | 336° |
| 2026-05-04 12:34 | 50.04112 | 8.56215 | 359 ft | 13 kts | 67° |
| 2026-05-04 12:34 | 50.04142 | 8.56344 | 359 ft | 12 kts | 69° |
| 2026-05-04 12:34 | 50.04174 | 8.56474 | 360 ft | 13 kts | 70° |
| 2026-05-04 12:35 | 50.04208 | 8.56617 | 356 ft | 15 kts | 70° |
| 2026-05-04 12:35 | 50.04245 | 8.56775 | 362 ft | 17 kts | 70° |
| 2026-05-04 12:35 | 50.04293 | 8.56974 | 361 ft | 23 kts | 70° |
| 2026-05-04 12:35 | 50.04353 | 8.57228 | 361 ft | 27 kts | 70° |
| 2026-05-04 12:36 | 50.04426 | 8.57531 | 361 ft | 31 kts | 70° |
| 2026-05-04 12:36 | 50.04488 | 8.57788 | 367 ft | 25 kts | 70° |
| 2026-05-04 12:36 | 50.04547 | 8.58037 | 366 ft | 25 kts | 70° |
| 2026-05-04 12:36 | 50.04605 | 8.58282 | 370 ft | 23 kts | 70° |
| 2026-05-04 12:37 | 50.04657 | 8.58501 | 369 ft | 22 kts | 69° |
| 2026-05-04 12:37 | 50.04713 | 8.58722 | 369 ft | 22 kts | 66° |
| 2026-05-04 12:37 | 50.04750 | 8.58862 | 371 ft | 6 kts | 59° |
| 2026-05-04 12:37 | 50.04797 | 8.58856 | 369 ft | 9 kts | 338° |
| 2026-05-04 12:38 | 50.04830 | 8.58837 | 366 ft | 1 kts | 339° |
| 2026-05-04 12:38 | 50.04831 | 8.58836 | 368 ft | 0 kts | 339° |
| 2026-05-04 12:50 | 50.04830 | 8.58836 | 365 ft | 0 kts | 339° |
| 2026-05-04 13:03 | 50.04830 | 8.58837 | 365 ft | 0 kts | 339° |
| 2026-05-04 13:21 | 50.04829 | 8.58837 | 365 ft | 0 kts | 339° |